createdAt,value
2019-04-01T00:00:27.188Z,57.60
2019-04-01T00:02:57.503Z,57.90
2019-04-01T00:05:25.891Z,58.20
2019-04-01T00:07:54.497Z,58.10
2019-04-01T00:10:23.244Z,58.30
2019-04-01T00:12:51.623Z,59.10
2019-04-01T00:15:20.335Z,58.40
2019-04-01T00:17:48.651Z,58.40
2019-04-01T00:20:17.324Z,58.70
2019-04-01T00:22:45.748Z,58.90
2019-04-01T00:25:14.014Z,59.00
2019-04-01T00:27:42.499Z,58.90
2019-04-01T00:30:10.898Z,59.00
2019-04-01T00:32:39.231Z,59.00
2019-04-01T00:35:08.051Z,58.90
2019-04-01T00:37:36.484Z,58.90
2019-04-01T00:40:05.028Z,58.80
2019-04-01T00:42:41.703Z,58.80
2019-04-01T00:45:13.466Z,58.80
2019-04-01T00:47:41.756Z,59.30
2019-04-01T00:50:10.353Z,59.10
2019-04-01T00:52:38.909Z,59.40
2019-04-01T00:55:07.614Z,59.70
2019-04-01T00:57:35.973Z,59.50
2019-04-01T01:00:05.753Z,59.40
2019-04-01T01:02:34.266Z,59.60
2019-04-01T01:05:04.929Z,59.60
2019-04-01T01:07:33.447Z,59.80
2019-04-01T01:10:02.336Z,59.90
2019-04-01T01:12:31.507Z,60.00
2019-04-01T01:15:00.355Z,60.00
2019-04-01T01:17:30.029Z,60.00
2019-04-01T01:19:58.790Z,61.20
2019-04-01T01:22:27.257Z,61.00
2019-04-01T01:24:56.184Z,61.00
2019-04-01T01:27:24.539Z,60.60
2019-04-01T01:29:53.504Z,61.50
2019-04-01T01:32:21.808Z,60.90
2019-04-01T01:34:50.217Z,60.80
2019-04-01T01:37:18.647Z,61.10
2019-04-01T01:39:47.334Z,61.70
2019-04-01T01:42:15.760Z,62.10
2019-04-01T01:44:44.408Z,62.60
2019-04-01T01:47:12.788Z,63.30
2019-04-01T01:49:41.183Z,64.10
2019-04-01T01:52:09.580Z,64.60
2019-04-01T01:54:38.171Z,64.40
2019-04-01T01:57:07.208Z,64.30
2019-04-01T01:59:35.474Z,64.30
2019-04-01T02:02:05.013Z,63.90
2019-04-01T02:04:33.578Z,63.70
2019-04-01T02:07:04.428Z,64.30
2019-04-01T02:09:32.781Z,64.50
2019-04-01T02:12:01.975Z,64.40
2019-04-01T02:14:30.468Z,65.10
2019-04-01T02:16:59.212Z,66.10
2019-04-01T02:19:27.835Z,66.80
2019-04-01T02:21:56.372Z,66.70
2019-04-01T02:24:25.305Z,67.10
2019-04-01T02:26:53.981Z,67.60
2019-04-01T02:29:22.581Z,67.50
2019-04-01T02:31:51.266Z,68.50
2019-04-01T02:34:19.941Z,68.10
2019-04-01T02:36:49.034Z,68.70
2019-04-01T02:39:17.338Z,68.10
2019-04-01T02:41:45.582Z,68.50
2019-04-01T02:44:14.098Z,68.00
2019-04-01T02:46:42.802Z,67.80
2019-04-01T02:49:11.142Z,67.70
2019-04-01T02:51:39.527Z,67.70
2019-04-01T02:54:08.234Z,68.00
2019-04-01T02:56:36.925Z,68.20
2019-04-01T02:59:05.173Z,68.40
2019-04-01T03:01:33.773Z,68.50
2019-04-01T03:04:02.374Z,68.80
2019-04-01T03:06:31.095Z,69.50
2019-04-01T03:09:01.373Z,69.30
2019-04-01T03:11:30.079Z,69.60
2019-04-01T03:13:58.628Z,69.80
2019-04-01T03:16:26.918Z,69.60
2019-04-01T03:18:55.721Z,69.50
2019-04-01T03:21:27.506Z,69.60
2019-04-01T03:23:55.877Z,69.80
2019-04-01T03:26:24.811Z,69.60
2019-04-01T03:28:53.237Z,70.00
2019-04-01T03:31:21.669Z,70.30
2019-04-01T03:33:50.325Z,70.30
2019-04-01T03:36:18.726Z,70.00
2019-04-01T03:38:47.077Z,70.00
2019-04-01T03:41:15.417Z,70.40
2019-04-01T03:43:43.825Z,69.90
2019-04-01T03:46:12.096Z,70.50
2019-04-01T03:48:40.936Z,70.80
2019-04-01T03:51:09.197Z,71.10
2019-04-01T03:53:38.041Z,71.10
2019-04-01T03:56:06.634Z,70.70
2019-04-01T03:58:35.306Z,70.60
2019-04-01T04:01:04.578Z,71.10
2019-04-01T04:03:33.049Z,71.10
2019-04-01T04:06:01.965Z,71.40
2019-04-01T04:08:39.304Z,71.60
2019-04-01T04:11:09.723Z,72.20
2019-04-01T04:13:38.484Z,71.90
2019-04-01T04:16:07.249Z,72.00
2019-04-01T04:18:36.377Z,72.30
2019-04-01T04:21:04.850Z,72.20
2019-04-01T04:23:33.562Z,72.30
2019-04-01T04:26:03.357Z,72.30
2019-04-01T04:28:32.346Z,72.40
2019-04-01T04:31:00.795Z,72.90
2019-04-01T04:33:29.958Z,72.90
2019-04-01T04:35:58.541Z,73.40
2019-04-01T04:38:27.757Z,73.60
2019-04-01T04:40:57.257Z,73.70
2019-04-01T04:43:25.846Z,73.60
2019-04-01T04:45:54.203Z,73.40
2019-04-01T04:48:23.657Z,74.90
2019-04-01T04:50:52.529Z,74.50
2019-04-01T04:53:21.472Z,74.50
2019-04-01T04:55:50.651Z,74.70
2019-04-01T04:58:19.577Z,74.90
2019-04-01T05:00:48.194Z,75.10
2019-04-01T05:03:16.761Z,74.90
2019-04-01T05:05:45.697Z,75.20
2019-04-01T05:08:14.387Z,76.00
2019-04-01T05:10:43.397Z,76.10
2019-04-01T05:13:13.779Z,75.90
2019-04-01T05:15:42.798Z,75.70
2019-04-01T05:18:11.494Z,76.60
2019-04-01T05:20:41.089Z,76.90
2019-04-01T05:23:11.389Z,76.90
2019-04-01T05:25:41.031Z,77.20
2019-04-01T05:28:13.167Z,77.10
2019-04-01T05:30:43.384Z,76.80
2019-04-01T05:33:15.742Z,77.10
2019-04-01T05:35:44.284Z,77.90
2019-04-01T05:38:13.162Z,77.00
2019-04-01T05:40:41.915Z,77.30
2019-04-01T05:43:11.189Z,77.20
2019-04-01T05:45:39.550Z,77.80
2019-04-01T05:48:08.750Z,78.30
2019-04-01T05:50:37.147Z,77.60
2019-04-01T05:53:05.935Z,77.60
2019-04-01T05:55:34.945Z,77.40
2019-04-01T05:58:03.694Z,77.20
2019-04-01T06:00:45.544Z,77.40
2019-04-01T06:03:14.073Z,77.20
2019-04-01T06:05:42.803Z,77.10
2019-04-01T06:08:11.780Z,77.50
2019-04-01T06:10:40.910Z,76.70
2019-04-01T06:13:09.455Z,76.40
2019-04-01T06:15:40.019Z,75.60
2019-04-01T06:18:08.520Z,75.00
2019-04-01T06:20:37.489Z,75.20
2019-04-01T06:23:06.247Z,75.10
2019-04-01T06:25:35.412Z,74.50
2019-04-01T06:28:04.761Z,74.00
2019-04-01T06:30:33.704Z,73.90
2019-04-01T06:33:02.127Z,74.00
2019-04-01T06:35:31.155Z,74.10
2019-04-01T06:37:59.928Z,74.20
2019-04-01T06:40:30.407Z,73.80
2019-04-01T06:43:00.074Z,73.60
2019-04-01T06:45:29.375Z,73.30
2019-04-01T06:47:58.259Z,73.20
2019-04-01T06:50:26.996Z,73.10
2019-04-01T06:52:55.593Z,73.70
2019-04-01T06:55:24.605Z,72.30
2019-04-01T06:57:53.178Z,72.40
2019-04-01T07:00:22.214Z,71.60
2019-04-01T07:02:51.374Z,71.70
2019-04-01T07:05:20.166Z,71.00
2019-04-01T07:07:48.883Z,70.10
2019-04-01T07:10:17.427Z,69.50
2019-04-01T07:12:46.419Z,69.10
2019-04-01T07:15:14.765Z,67.90
2019-04-01T07:17:45.295Z,67.10
2019-04-01T07:20:14.309Z,68.00
2019-04-01T07:22:43.060Z,64.00
2019-04-01T07:25:11.696Z,57.60
2019-04-01T07:27:40.555Z,52.00
2019-04-01T07:30:09.696Z,51.40
2019-04-01T07:32:38.632Z,44.90
2019-04-01T07:35:07.324Z,41.50
2019-04-01T07:37:36.352Z,40.50
2019-04-01T07:40:05.718Z,38.60
2019-04-01T07:42:34.743Z,36.40
2019-04-01T07:45:04.163Z,35.40
2019-04-01T07:47:32.981Z,34.30
2019-04-01T07:50:02.262Z,31.40
2019-04-01T07:52:31.435Z,30.90
2019-04-01T07:55:00.538Z,31.10
2019-04-01T07:57:32.626Z,30.60
2019-04-01T08:00:00.516Z,30.00
2019-04-01T08:02:30.329Z,28.80
2019-04-01T08:04:59.570Z,28.10
2019-04-01T08:07:28.698Z,27.40
2019-04-01T08:09:57.374Z,28.10
2019-04-01T08:12:27.951Z,27.20
2019-04-01T08:14:56.854Z,25.80
2019-04-01T08:17:25.316Z,26.50
2019-04-01T08:19:55.999Z,25.80
2019-04-01T08:22:24.944Z,26.30
2019-04-01T08:24:53.903Z,25.40
2019-04-01T08:27:22.735Z,25.40
2019-04-01T08:29:51.204Z,24.70
2019-04-01T08:32:19.722Z,24.90
2019-04-01T08:34:49.330Z,24.70
2019-04-01T08:37:18.127Z,24.20
2019-04-01T08:39:47.105Z,24.20
2019-04-01T08:42:16.124Z,24.60
2019-04-01T08:44:44.608Z,23.70
2019-04-01T08:47:13.063Z,23.70
2019-04-01T08:49:41.765Z,23.70
2019-04-01T08:52:10.144Z,22.80
2019-04-01T08:54:38.674Z,23.40
2019-04-01T08:57:07.088Z,23.10
2019-04-01T08:59:36.196Z,22.10
2019-04-01T09:02:16.988Z,22.30
2019-04-01T09:04:36.021Z,22.00
2019-04-01T09:07:04.789Z,21.50
2019-04-01T09:09:34.424Z,21.10
2019-04-01T09:12:04.536Z,20.00
2019-04-01T09:14:34.704Z,21.70
2019-04-01T09:17:04.996Z,23.30
2019-04-01T09:19:33.297Z,23.40
2019-04-01T09:22:04.610Z,22.80
2019-04-01T09:24:33.231Z,23.00
2019-04-01T09:27:01.991Z,22.30
2019-04-01T09:29:30.633Z,23.00
2019-04-01T09:31:59.748Z,21.60
2019-04-01T09:34:28.560Z,20.70
2019-04-01T09:36:57.384Z,21.80
2019-04-01T09:39:25.938Z,24.50
2019-04-01T09:41:54.382Z,23.70
2019-04-01T09:44:36.089Z,23.20
2019-04-01T09:46:53.203Z,22.70
2019-04-01T09:49:22.218Z,21.90
2019-04-01T09:51:51.314Z,20.70
2019-04-01T09:54:20.057Z,20.60
2019-04-01T09:56:48.461Z,21.90
2019-04-01T09:59:17.091Z,22.70
2019-04-01T10:01:45.712Z,21.60
2019-04-01T10:04:14.333Z,21.60
2019-04-01T10:06:42.759Z,19.80
2019-04-01T10:09:11.747Z,20.30
2019-04-01T10:11:40.087Z,20.30
2019-04-01T10:14:08.606Z,20.70
2019-04-01T10:16:37.646Z,20.80
2019-04-01T10:19:06.197Z,19.80
2019-04-01T10:21:35.621Z,19.10
2019-04-01T10:24:06.436Z,17.90
2019-04-01T10:26:35.017Z,17.00
2019-04-01T10:29:04.220Z,17.40
2019-04-01T10:31:32.704Z,16.70
2019-04-01T10:34:02.610Z,16.80
2019-04-01T10:36:31.310Z,17.10
2019-04-01T10:38:59.686Z,16.40
2019-04-01T10:41:28.321Z,16.50
2019-04-01T10:43:56.914Z,15.80
2019-04-01T10:46:25.483Z,15.00
2019-04-01T10:48:54.145Z,15.60
2019-04-01T10:51:22.651Z,15.10
2019-04-01T10:53:51.139Z,15.20
2019-04-01T10:56:20.656Z,14.90
2019-04-01T10:58:49.407Z,15.00
2019-04-01T11:01:18.275Z,14.90
2019-04-01T11:03:46.528Z,15.40
2019-04-01T11:06:15.643Z,14.60
2019-04-01T11:08:44.498Z,14.50
2019-04-01T11:11:13.239Z,13.60
2019-04-01T11:13:41.848Z,13.90
2019-04-01T11:16:10.304Z,14.30
2019-04-01T11:18:38.998Z,14.10
2019-04-01T11:21:07.628Z,14.00
2019-04-01T11:23:36.117Z,14.30
2019-04-01T11:26:07.160Z,14.30
2019-04-01T11:28:35.555Z,14.50
2019-04-01T11:31:05.314Z,14.50
2019-04-01T11:33:33.834Z,14.50
2019-04-01T11:36:02.695Z,14.90
2019-04-01T11:38:31.937Z,14.80
2019-04-01T11:41:00.654Z,14.80
2019-04-01T11:43:29.709Z,14.80
2019-04-01T11:45:58.658Z,14.20
2019-04-01T11:48:27.270Z,14.30
2019-04-01T11:50:55.650Z,15.20
2019-04-01T11:53:24.637Z,15.90
2019-04-01T11:55:53.289Z,16.40
2019-04-01T11:58:21.763Z,16.00
2019-04-01T12:00:54.310Z,15.90
2019-04-01T12:03:23.390Z,15.70
2019-04-01T12:05:52.407Z,15.40
2019-04-01T12:08:21.368Z,15.80
2019-04-01T12:10:50.053Z,15.40
2019-04-01T12:13:18.740Z,15.20
2019-04-01T12:15:47.074Z,15.50
2019-04-01T12:18:15.682Z,15.00
2019-04-01T12:20:44.039Z,14.70
2019-04-01T12:23:12.726Z,14.90
2019-04-01T12:25:41.503Z,15.90
2019-04-01T12:28:12.600Z,15.90
2019-04-01T12:30:41.847Z,16.40
2019-04-01T12:33:10.635Z,15.90
2019-04-01T12:35:38.926Z,15.80
2019-04-01T12:38:07.714Z,15.60
2019-04-01T12:40:36.943Z,15.60
2019-04-01T12:43:06.815Z,15.80
2019-04-01T12:45:35.744Z,15.80
2019-04-01T12:48:06.018Z,16.10
2019-04-01T12:50:34.390Z,15.90
2019-04-01T12:53:03.537Z,16.40
2019-04-01T12:55:31.895Z,16.30
2019-04-01T12:58:00.574Z,16.20
2019-04-01T13:00:29.633Z,15.80
2019-04-01T13:02:58.580Z,15.90
2019-04-01T13:05:26.940Z,16.50
2019-04-01T13:07:55.260Z,16.70
2019-04-01T13:10:23.788Z,16.70
2019-04-01T13:12:54.101Z,17.00
2019-04-01T13:15:22.455Z,17.30
2019-04-01T13:17:50.999Z,17.10
2019-04-01T13:20:19.717Z,17.30
2019-04-01T13:22:48.376Z,17.80
2019-04-01T13:25:17.085Z,17.70
2019-04-01T13:27:46.659Z,17.70
2019-04-01T13:30:17.350Z,17.10
2019-04-01T13:32:45.923Z,17.40
2019-04-01T13:35:15.129Z,17.30
2019-04-01T13:37:43.547Z,17.40
2019-04-01T13:40:12.900Z,17.40
2019-04-01T13:42:43.323Z,17.60
2019-04-01T13:45:11.739Z,17.60
2019-04-01T13:47:41.374Z,17.80
2019-04-01T13:50:10.458Z,17.60
2019-04-01T13:52:39.031Z,17.70
2019-04-01T13:55:09.903Z,18.10
2019-04-01T13:57:38.311Z,18.00
2019-04-01T14:00:07.641Z,17.90
2019-04-01T14:02:35.939Z,17.60
2019-04-01T14:05:06.443Z,17.80
2019-04-01T14:07:34.627Z,18.00
2019-04-01T14:10:04.228Z,18.10
2019-04-01T14:12:34.995Z,18.10
2019-04-01T14:15:04.337Z,17.30
2019-04-01T14:17:32.644Z,17.30
2019-04-01T14:20:02.782Z,17.50
2019-04-01T14:22:31.573Z,17.50
2019-04-01T14:25:00.261Z,17.10
2019-04-01T14:27:30.177Z,16.90
2019-04-01T14:29:58.543Z,17.20
2019-04-01T14:32:28.717Z,17.60
2019-04-01T14:34:57.289Z,16.90
2019-04-01T14:37:29.869Z,16.80
2019-04-01T14:39:56.431Z,17.30
2019-04-01T14:42:25.131Z,17.80
2019-04-01T14:44:58.328Z,17.90
2019-04-01T14:47:26.985Z,17.40
2019-04-01T14:49:55.448Z,17.70
2019-04-01T14:52:32.402Z,18.30
2019-04-01T14:54:55.171Z,16.70
2019-04-01T14:57:23.899Z,16.50
2019-04-01T14:59:56.114Z,17.00
2019-04-01T15:02:22.888Z,16.50
2019-04-01T15:04:51.912Z,16.50
2019-04-01T15:07:20.531Z,16.50
2019-04-01T15:09:49.580Z,16.70
2019-04-01T15:12:18.337Z,17.00
2019-04-01T15:14:46.980Z,16.90
2019-04-01T15:17:15.547Z,17.20
2019-04-01T15:19:43.984Z,17.30
2019-04-01T15:22:12.628Z,17.30
2019-04-01T15:24:41.094Z,17.30
2019-04-01T15:27:10.090Z,17.20
2019-04-01T15:29:38.408Z,17.50
2019-04-01T15:32:06.847Z,17.50
2019-04-01T15:34:37.391Z,17.50
2019-04-01T15:37:06.318Z,17.20
2019-04-01T15:39:34.903Z,17.20
2019-04-01T15:42:04.628Z,17.00
2019-04-01T15:44:33.568Z,17.00
2019-04-01T15:47:04.520Z,16.90
2019-04-01T15:49:32.851Z,17.00
2019-04-01T15:52:01.502Z,17.40
2019-04-01T15:54:30.206Z,17.50
2019-04-01T15:56:58.625Z,17.20
2019-04-01T15:59:27.054Z,17.40
2019-04-01T16:01:55.898Z,17.40
2019-04-01T16:04:24.311Z,17.40
2019-04-01T16:06:52.703Z,17.50
2019-04-01T16:09:22.344Z,17.10
2019-04-01T16:11:54.142Z,17.40
2019-04-01T16:14:22.167Z,17.50
2019-04-01T16:16:50.915Z,17.70
2019-04-01T16:19:19.543Z,17.30
2019-04-01T16:21:47.940Z,17.50
2019-04-01T16:24:16.647Z,17.40
2019-04-01T16:26:44.967Z,17.60
2019-04-01T16:29:13.598Z,17.70
2019-04-01T16:31:42.063Z,17.70
2019-04-01T16:34:10.999Z,17.90
2019-04-01T16:36:41.389Z,18.50
2019-04-01T16:39:10.060Z,19.00
2019-04-01T16:41:38.395Z,19.00
2019-04-01T16:44:07.121Z,19.00
2019-04-01T16:46:35.756Z,19.20
2019-04-01T16:49:05.030Z,19.20
2019-04-01T16:51:34.505Z,19.00
2019-04-01T16:54:04.816Z,19.20
2019-04-01T16:56:33.123Z,19.30
2019-04-01T16:59:01.579Z,19.40
2019-04-01T17:01:30.271Z,19.40
2019-04-01T17:03:58.979Z,19.60
2019-04-01T17:06:27.659Z,19.80
2019-04-01T17:08:56.438Z,20.30
2019-04-01T17:11:24.750Z,20.30
2019-04-01T17:13:53.068Z,20.50
2019-04-01T17:16:21.824Z,20.50
2019-04-01T17:18:50.418Z,21.10
2019-04-01T17:21:19.283Z,20.60
2019-04-01T17:23:47.854Z,20.90
2019-04-01T17:26:16.247Z,20.90
2019-04-01T17:28:45.235Z,21.20
2019-04-01T17:31:13.944Z,21.50
2019-04-01T17:33:42.546Z,21.60
2019-04-01T17:36:11.233Z,21.60
2019-04-01T17:38:41.815Z,22.00
2019-04-01T17:41:10.739Z,22.80
2019-04-01T17:43:39.521Z,22.10
2019-04-01T17:46:09.032Z,22.30
2019-04-01T17:48:37.784Z,22.40
2019-04-01T17:51:06.419Z,22.80
2019-04-01T17:53:34.725Z,22.80
2019-04-01T17:56:04.950Z,23.00
2019-04-01T17:58:33.897Z,23.20
2019-04-01T18:01:02.506Z,23.20
2019-04-01T18:03:31.178Z,23.50
2019-04-01T18:05:59.938Z,23.40
2019-04-01T18:08:29.635Z,23.80
2019-04-01T18:10:58.136Z,23.90
2019-04-01T18:13:26.600Z,23.90
2019-04-01T18:15:57.393Z,23.90
2019-04-01T18:18:27.516Z,24.00
2019-04-01T18:20:56.157Z,24.10
2019-04-01T18:23:26.288Z,24.10
2019-04-01T18:25:55.174Z,24.50
2019-04-01T18:28:23.851Z,24.80
2019-04-01T18:30:52.437Z,24.80
2019-04-01T18:33:20.921Z,24.70
2019-04-01T18:35:49.280Z,24.90
2019-04-01T18:38:17.628Z,25.10
2019-04-01T18:40:48.182Z,25.10
2019-04-01T18:43:16.594Z,25.30
2019-04-01T18:45:45.258Z,25.60
2019-04-01T18:48:14.833Z,25.80
2019-04-01T18:50:43.849Z,25.90
2019-04-01T18:53:12.469Z,26.00
2019-04-01T18:55:40.890Z,26.10
2019-04-01T18:58:10.327Z,26.30
2019-04-01T19:00:38.934Z,26.30
2019-04-01T19:03:07.914Z,26.50
2019-04-01T19:05:36.560Z,26.50
2019-04-01T19:08:04.929Z,26.70
2019-04-01T19:10:33.417Z,26.80
2019-04-01T19:13:06.547Z,26.90
2019-04-01T19:15:33.376Z,27.00
2019-04-01T19:18:02.775Z,27.10
2019-04-01T19:20:31.768Z,27.10
2019-04-01T19:23:02.192Z,27.20
2019-04-01T19:25:30.887Z,27.20
2019-04-01T19:27:59.430Z,27.70
2019-04-01T19:30:27.899Z,27.60
2019-04-01T19:32:56.512Z,27.70
2019-04-01T19:35:24.814Z,27.60
2019-04-01T19:37:53.232Z,27.60
2019-04-01T19:40:23.552Z,27.80
2019-04-01T19:42:54.018Z,27.80
2019-04-01T19:45:22.540Z,28.00
2019-04-01T19:47:51.053Z,28.00
2019-04-01T19:50:20.155Z,28.30
2019-04-01T19:52:49.057Z,28.40
2019-04-01T19:55:18.317Z,28.70
2019-04-01T19:57:47.060Z,28.80
2019-04-01T20:00:27.632Z,28.90
2019-04-01T20:02:47.565Z,28.90
2019-04-01T20:05:15.996Z,29.00
2019-04-01T20:07:44.908Z,29.20
2019-04-01T20:10:14.032Z,29.30
2019-04-01T20:12:42.800Z,29.10
2019-04-01T20:15:12.535Z,29.20
2019-04-01T20:17:41.294Z,29.40
2019-04-01T20:20:10.411Z,29.40
2019-04-01T20:22:40.358Z,29.30
2019-04-01T20:25:09.584Z,29.80
2019-04-01T20:27:38.202Z,29.60
2019-04-01T20:30:09.086Z,29.60
2019-04-01T20:32:37.855Z,29.80
2019-04-01T20:35:08.371Z,29.60
2019-04-01T20:37:37.166Z,29.70
2019-04-01T20:40:06.947Z,29.80
2019-04-01T20:42:35.446Z,29.90
2019-04-01T20:45:07.167Z,30.40
2019-04-01T20:47:35.975Z,29.90
2019-04-01T20:50:06.478Z,30.00
2019-04-01T20:52:35.046Z,30.30
2019-04-01T20:55:04.064Z,30.30
2019-04-01T20:57:32.706Z,30.50
2019-04-01T21:00:03.140Z,30.70
2019-04-01T21:02:32.179Z,30.60
2019-04-01T21:05:02.654Z,31.00
2019-04-01T21:07:31.472Z,31.10
2019-04-01T21:09:59.980Z,31.20
2019-04-01T21:12:29.140Z,31.10
2019-04-01T21:14:57.989Z,31.30
2019-04-01T21:17:26.835Z,31.30
2019-04-01T21:19:55.556Z,31.20
2019-04-01T21:22:26.341Z,31.10
2019-04-01T21:24:55.174Z,31.30
2019-04-01T21:27:24.161Z,31.30
2019-04-01T21:29:53.196Z,31.40
2019-04-01T21:32:21.722Z,31.30
2019-04-01T21:34:50.729Z,31.60
2019-04-01T21:37:19.678Z,31.60
2019-04-01T21:39:48.285Z,32.10
2019-04-01T21:42:17.065Z,32.00
2019-04-01T21:44:46.960Z,32.30
2019-04-01T21:47:17.519Z,32.90
2019-04-01T21:49:46.373Z,32.40
2019-04-01T21:52:14.852Z,32.60
2019-04-01T21:54:43.886Z,32.70
2019-04-01T21:57:12.858Z,32.80
2019-04-01T21:59:41.248Z,32.60
2019-04-01T22:02:10.028Z,32.80
2019-04-01T22:04:38.663Z,32.80
2019-04-01T22:07:07.373Z,33.10
2019-04-01T22:09:36.386Z,33.20
2019-04-01T22:12:06.224Z,33.40
2019-04-01T22:14:34.690Z,33.40
2019-04-01T22:17:03.340Z,33.70
2019-04-01T22:19:32.294Z,33.50
2019-04-01T22:22:00.972Z,33.90
2019-04-01T22:24:29.670Z,34.10
2019-04-01T22:26:58.346Z,33.90
2019-04-01T22:29:27.066Z,34.00
2019-04-01T22:31:55.995Z,34.10
2019-04-01T22:34:24.725Z,34.20
2019-04-01T22:36:53.387Z,34.30
2019-04-01T22:39:27.276Z,34.40
2019-04-01T22:41:52.909Z,34.50
2019-04-01T22:44:23.113Z,34.60
2019-04-01T22:46:52.153Z,34.90
2019-04-01T22:49:23.001Z,35.00
2019-04-01T22:51:51.662Z,35.10
2019-04-01T22:54:20.098Z,35.60
2019-04-01T22:56:48.710Z,35.60
2019-04-01T22:59:17.400Z,35.90
2019-04-01T23:01:46.107Z,36.00
2019-04-01T23:04:14.489Z,36.10
2019-04-01T23:06:43.329Z,36.40
2019-04-01T23:09:12.273Z,36.10
2019-04-01T23:11:40.899Z,36.30
2019-04-01T23:14:09.237Z,36.20
2019-04-01T23:16:38.498Z,36.40
2019-04-01T23:19:06.901Z,36.50
2019-04-01T23:21:35.596Z,37.00
2019-04-01T23:24:04.170Z,37.00
2019-04-01T23:26:32.741Z,36.90
2019-04-01T23:29:02.419Z,37.00
2019-04-01T23:31:31.279Z,37.10
2019-04-01T23:33:59.895Z,37.20
2019-04-01T23:36:29.003Z,37.20
2019-04-01T23:38:57.952Z,37.20
2019-04-01T23:41:26.710Z,37.30
2019-04-01T23:43:55.486Z,37.50
2019-04-01T23:46:24.101Z,37.90
2019-04-01T23:48:52.662Z,37.70
2019-04-01T23:51:23.163Z,37.70
2019-04-01T23:53:51.669Z,38.10
2019-04-01T23:56:20.589Z,38.30
2019-04-01T23:58:49.030Z,38.40
